Time;durP1;ratioP1;P1;durP2;ratioP2;P2;SDS_P1;SDS_P2;PMS_P1;PMS_P2;Temp;Humidity;BMP_temperature;BMP_pressure;BME280_temperature;BME280_humidity;BME280_pressure;Samples;Min_cycle;Max_cycle;Signal;HPM_P1;HPM_P2
2022/06/28 00:00:09;;;;;;;;;;;13.30;99.90;;;;;;5073250;28;19905;-72
2022/06/28 00:02:34;;;;;;;;;;;13.30;99.90;;;;;;5074324;28;20279;-71
2022/06/28 00:05:00;;;;;;;;;;;13.30;99.90;;;;;;5074058;28;19939;-73
2022/06/28 00:07:25;;;;;;;;;;;13.40;99.90;;;;;;5074213;28;19904;-72
2022/06/28 00:09:51;;;;;;;;;;;13.30;99.90;;;;;;5074519;28;19908;-71
2022/06/28 00:12:16;;;;;;;;;;;13.30;99.90;;;;;;5073205;28;20436;-73
2022/06/28 00:17:26;;;;;;;;;;;13.40;99.90;;;;;;5077938;28;20338;-72
2022/06/28 00:19:51;;;;;;;;;;;13.40;99.90;;;;;;5075748;28;19908;-72
2022/06/28 00:22:17;;;;;;;;;;;13.30;99.90;;;;;;5073490;28;19905;-72
2022/06/28 00:24:42;;;;;;;;;;;13.30;99.90;;;;;;5074773;28;20001;-72
2022/06/28 00:27:11;;;;;;;;;;;13.30;99.90;;;;;;5074190;28;20001;-74
2022/06/28 00:29:36;;;;;;;;;;;13.30;99.90;;;;;;5073068;28;19904;-71
2022/06/28 00:32:02;;;;;;;;;;;13.30;99.90;;;;;;5073132;28;19904;-72
2022/06/28 00:34:27;;;;;;;;;;;13.30;99.90;;;;;;5072944;28;20418;-72
2022/06/28 00:36:53;;;;;;;;;;;13.30;99.90;;;;;;5073264;28;19915;-71
2022/06/28 00:39:18;;;;;;;;;;;13.40;99.90;;;;;;5072948;28;19995;-72
2022/06/28 00:41:45;;;;;;;;;;;13.40;99.90;;;;;;5071387;28;19909;-72
2022/06/28 00:44:11;;;;;;;;;;;13.40;99.90;;;;;;5072959;28;20007;-71
2022/06/28 00:46:36;;;;;;;;;;;13.30;99.90;;;;;;5072935;28;19911;-70
2022/06/28 00:49:02;;;;;;;;;;;13.40;99.90;;;;;;5091815;22;19924;-74
2022/06/28 00:51:28;;;;;;;;;;;13.40;99.90;;;;;;5078757;28;19957;-73
2022/06/28 00:53:54;;;;;;;;;;;13.30;99.90;;;;;;5078238;28;20372;-75
2022/06/28 00:56:20;;;;;;;;;;;13.30;99.90;;;;;;5079149;28;19904;-74
2022/06/28 00:58:45;;;;;;;;;;;13.30;99.90;;;;;;5079554;28;19943;-75
2022/06/28 01:01:11;;;;;;;;;;;13.30;99.90;;;;;;5078994;28;19910;-74
2022/06/28 01:03:36;;;;;;;;;;;13.30;99.90;;;;;;5059971;28;19904;-74
2022/06/28 01:06:02;;;;;;;;;;;13.30;99.90;;;;;;5076411;28;19905;-75
2022/06/28 01:08:28;;;;;;;;;;;13.20;99.90;;;;;;5062265;28;19908;-75
2022/06/28 01:10:53;;;;;;;;;;;13.20;99.90;;;;;;5072905;28;19915;-74
2022/06/28 01:13:19;;;;;;;;;;;13.20;99.90;;;;;;5054536;28;19904;-74
2022/06/28 01:15:44;;;;;;;;;;;13.20;99.90;;;;;;5072523;28;20383;-73
2022/06/28 01:18:11;;;;;;;;;;;13.20;99.90;;;;;;5072327;28;20324;-75
2022/06/28 01:20:37;;;;;;;;;;;13.20;99.90;;;;;;5072867;28;20365;-74
2022/06/28 01:23:03;;;;;;;;;;;13.20;99.90;;;;;;5074161;28;19905;-73
2022/06/28 01:25:28;;;;;;;;;;;13.20;99.90;;;;;;5076373;28;19991;-74
2022/06/28 01:27:55;;;;;;;;;;;13.10;99.90;;;;;;5076171;28;19943;-72
2022/06/28 01:30:20;;;;;;;;;;;13.10;99.90;;;;;;5076161;28;19904;-74
2022/06/28 01:32:46;;;;;;;;;;;13.10;99.90;;;;;;5076147;28;20391;-74
2022/06/28 01:35:12;;;;;;;;;;;13.10;99.90;;;;;;5076269;28;19916;-74
2022/06/28 01:37:38;;;;;;;;;;;13.10;99.90;;;;;;5076263;28;19905;-74
2022/06/28 01:40:04;;;;;;;;;;;13.10;99.90;;;;;;5076292;28;19955;-74
2022/06/28 01:42:30;;;;;;;;;;;13.10;99.90;;;;;;5075864;28;19912;-74
2022/06/28 01:44:56;;;;;;;;;;;13.10;99.90;;;;;;5075841;28;19904;-74
2022/06/28 01:47:23;;;;;;;;;;;13.10;99.90;;;;;;5076130;28;19912;-74
2022/06/28 01:49:49;;;;;;;;;;;13.10;99.90;;;;;;5075971;28;19912;-75
2022/06/28 01:52:14;;;;;;;;;;;13.10;99.90;;;;;;5075703;28;19911;-74
2022/06/28 01:54:40;;;;;;;;;;;13.10;99.90;;;;;;5075818;28;19908;-73
2022/06/28 01:57:05;;;;;;;;;;;13.10;99.90;;;;;;5075931;28;19948;-74
2022/06/28 01:59:31;;;;;;;;;;;13.20;99.90;;;;;;5075780;28;19904;-74
2022/06/28 02:01:56;;;;;;;;;;;13.10;99.90;;;;;;5075749;28;19950;-73
2022/06/28 02:04:23;;;;;;;;;;;13.10;99.90;;;;;;5075480;28;20354;-73
2022/06/28 02:06:49;;;;;;;;;;;13.10;99.90;;;;;;5075849;28;20345;-73
2022/06/28 02:09:14;;;;;;;;;;;13.10;99.90;;;;;;5075687;28;19916;-75
2022/06/28 02:11:40;;;;;;;;;;;13.10;99.90;;;;;;5076035;28;20365;-75
2022/06/28 02:14:05;;;;;;;;;;;13.10;99.90;;;;;;5077064;28;19908;-75
2022/06/28 02:16:31;;;;;;;;;;;13.10;99.90;;;;;;5077191;28;19904;-75
2022/06/28 02:18:56;;;;;;;;;;;13.10;99.90;;;;;;5076844;28;19904;-75
2022/06/28 02:21:22;;;;;;;;;;;13.00;99.90;;;;;;5076040;28;19911;-74
2022/06/28 02:23:48;;;;;;;;;;;13.00;99.90;;;;;;5075797;28;19904;-74
2022/06/28 02:26:13;;;;;;;;;;;13.00;99.90;;;;;;5075469;28;19911;-73
2022/06/28 02:28:39;;;;;;;;;;;13.00;99.90;;;;;;5075470;28;19954;-74
2022/06/28 02:31:11;;;;;;;;;;;13.10;99.90;;;;;;5075244;28;19995;-74
2022/06/28 02:33:38;;;;;;;;;;;13.00;99.90;;;;;;5076743;28;19905;-74
2022/06/28 02:41:32;;;;;;;;;;;13.00;99.90;;;;;;5075296;28;20003;-74
2022/06/28 02:43:57;;;;;;;;;;;12.90;99.90;;;;;;5075457;28;20364;-74
2022/06/28 02:46:23;;;;;;;;;;;12.90;99.90;;;;;;5075648;28;19972;-74
2022/06/28 02:48:48;;;;;;;;;;;12.90;99.90;;;;;;5075231;28;20269;-74
2022/06/28 02:51:14;;;;;;;;;;;12.90;99.90;;;;;;5075377;28;19966;-74
2022/06/28 02:53:39;;;;;;;;;;;12.90;99.90;;;;;;5075126;28;19958;-74
2022/06/28 02:56:05;;;;;;;;;;;13.00;99.90;;;;;;5075156;28;19904;-74
2022/06/28 02:58:30;;;;;;;;;;;13.00;99.90;;;;;;5074908;28;20352;-74
2022/06/28 03:00:56;;;;;;;;;;;12.90;99.90;;;;;;5074923;28;20421;-74
2022/06/28 03:03:21;;;;;;;;;;;12.90;99.90;;;;;;5074940;28;19912;-74
2022/06/28 03:05:47;;;;;;;;;;;12.80;99.90;;;;;;5076003;28;19904;-75
2022/06/28 03:08:13;;;;;;;;;;;12.90;99.90;;;;;;5079694;28;19904;-75
2022/06/28 03:10:38;;;;;;;;;;;12.90;99.90;;;;;;5083422;28;20334;-74
2022/06/28 03:13:03;;;;;;;;;;;12.90;99.90;;;;;;5083583;28;19908;-75
2022/06/28 03:15:29;;;;;;;;;;;12.80;99.90;;;;;;5075297;28;19912;-74
2022/06/28 03:17:54;;;;;;;;;;;12.80;99.90;;;;;;5056427;28;19904;-74
2022/06/28 03:20:20;;;;;;;;;;;12.90;99.90;;;;;;5074640;28;20159;-74
2022/06/28 03:22:46;;;;;;;;;;;12.80;99.90;;;;;;5074154;28;19943;-73
2022/06/28 03:25:11;;;;;;;;;;;12.80;99.90;;;;;;5074123;28;19912;-77
2022/06/28 03:27:37;;;;;;;;;;;12.80;99.90;;;;;;5074096;28;19905;-73
2022/06/28 03:30:03;;;;;;;;;;;12.80;99.90;;;;;;5073757;28;19955;-73
2022/06/28 03:32:29;;;;;;;;;;;12.80;99.90;;;;;;5073760;28;19904;-74
2022/06/28 03:34:54;;;;;;;;;;;12.80;99.90;;;;;;5073647;28;19919;-73
2022/06/28 03:37:20;;;;;;;;;;;13.00;99.90;;;;;;5073927;28;19904;-74
2022/06/28 03:39:46;;;;;;;;;;;12.90;99.90;;;;;;5074207;28;19900;-74
2022/06/28 03:42:11;;;;;;;;;;;12.90;99.90;;;;;;5073558;28;20272;-74
2022/06/28 03:44:37;;;;;;;;;;;12.90;99.90;;;;;;5073715;28;19915;-73
2022/06/28 03:47:03;;;;;;;;;;;12.90;99.90;;;;;;5073661;28;20280;-75
2022/06/28 03:49:28;;;;;;;;;;;12.90;99.90;;;;;;5073571;28;19912;-73
2022/06/28 03:51:54;;;;;;;;;;;12.90;99.90;;;;;;5074100;28;20328;-74
2022/06/28 03:54:19;;;;;;;;;;;12.90;99.90;;;;;;5074380;28;20007;-74
2022/06/28 03:56:45;;;;;;;;;;;12.90;99.90;;;;;;5076502;28;19916;-74
2022/06/28 03:59:11;;;;;;;;;;;12.90;99.90;;;;;;5079598;28;20359;-74
2022/06/28 04:01:36;;;;;;;;;;;13.00;99.90;;;;;;5079249;28;20387;-74
2022/06/28 04:04:02;;;;;;;;;;;13.00;99.90;;;;;;5079258;28;20305;-74
2022/06/28 04:06:27;;;;;;;;;;;13.00;99.90;;;;;;5063309;28;19975;-74
2022/06/28 04:08:53;;;;;;;;;;;13.10;99.90;;;;;;5080417;28;19904;-74
2022/06/28 04:11:18;;;;;;;;;;;13.10;99.90;;;;;;5080664;28;19910;-75
2022/06/28 04:13:48;;;;;;;;;;;13.20;99.90;;;;;;5062022;28;19912;-75
2022/06/28 04:16:14;;;;;;;;;;;13.20;99.90;;;;;;5078115;28;19905;-75
2022/06/28 04:18:40;;;;;;;;;;;13.30;99.90;;;;;;5078067;28;20261;-74
2022/06/28 04:21:05;;;;;;;;;;;13.30;99.90;;;;;;5078237;28;19905;-74
2022/06/28 04:23:31;;;;;;;;;;;13.30;99.90;;;;;;5077736;28;19911;-74
2022/06/28 04:25:57;;;;;;;;;;;13.40;99.90;;;;;;5072809;28;19904;-74
2022/06/28 04:28:22;;;;;;;;;;;13.50;99.90;;;;;;5072765;28;19904;-75
2022/06/28 04:30:48;;;;;;;;;;;13.60;99.90;;;;;;5072988;28;20210;-73
2022/06/28 04:33:13;;;;;;;;;;;13.60;99.90;;;;;;5073197;28;19915;-73
2022/06/28 04:35:38;;;;;;;;;;;13.70;99.90;;;;;;5072754;28;19959;-73
2022/06/28 04:38:04;;;;;;;;;;;13.70;99.90;;;;;;5072963;28;19904;-73
2022/06/28 04:40:29;;;;;;;;;;;13.80;99.90;;;;;;5072810;28;19905;-74
2022/06/28 04:42:55;;;;;;;;;;;13.80;99.90;;;;;;5072851;28;19911;-74
2022/06/28 04:45:21;;;;;;;;;;;13.80;99.90;;;;;;5072914;28;19965;-73
2022/06/28 04:47:47;;;;;;;;;;;13.90;99.90;;;;;;5072805;28;19909;-74
2022/06/28 04:50:12;;;;;;;;;;;13.90;99.90;;;;;;5072986;28;19995;-73
2022/06/28 04:52:38;;;;;;;;;;;14.00;99.90;;;;;;5073136;28;20432;-73
2022/06/28 04:55:03;;;;;;;;;;;14.10;99.90;;;;;;5072791;28;20014;-74
2022/06/28 04:57:29;;;;;;;;;;;14.20;99.90;;;;;;5072443;28;19954;-74
2022/06/28 04:59:55;;;;;;;;;;;14.20;99.90;;;;;;5073468;28;19982;-73
2022/06/28 05:02:20;;;;;;;;;;;14.20;99.90;;;;;;5072654;28;20325;-74
2022/06/28 05:04:46;;;;;;;;;;;14.30;99.90;;;;;;5072955;28;19904;-74
2022/06/28 05:07:11;;;;;;;;;;;14.30;99.90;;;;;;5072506;28;19947;-75
2022/06/28 05:09:37;;;;;;;;;;;14.40;99.90;;;;;;5073174;28;20345;-74
2022/06/28 05:12:02;;;;;;;;;;;14.40;99.90;;;;;;5072783;28;19905;-73
2022/06/28 05:14:28;;;;;;;;;;;14.50;99.90;;;;;;5075289;28;20357;-76
2022/06/28 05:16:53;;;;;;;;;;;14.60;99.90;;;;;;5080596;28;20419;-73
2022/06/28 05:19:19;;;;;;;;;;;14.70;99.90;;;;;;5060205;28;19905;-73
2022/06/28 05:21:44;;;;;;;;;;;14.70;99.90;;;;;;5077671;28;19970;-75
2022/06/28 05:24:10;;;;;;;;;;;14.80;99.90;;;;;;5077203;28;19914;-74
2022/06/28 05:26:35;;;;;;;;;;;14.80;99.90;;;;;;5079954;28;19905;-75
2022/06/28 05:29:01;;;;;;;;;;;14.80;99.90;;;;;;5081715;28;20285;-74
2022/06/28 05:31:26;;;;;;;;;;;14.90;99.90;;;;;;5081735;28;19904;-74
2022/06/28 05:33:52;;;;;;;;;;;15.00;99.90;;;;;;5079807;28;20386;-74
2022/06/28 05:36:17;;;;;;;;;;;15.00;99.90;;;;;;5076824;28;19905;-74
2022/06/28 05:38:43;;;;;;;;;;;15.20;99.90;;;;;;5072818;28;19916;-73
2022/06/28 05:41:09;;;;;;;;;;;15.20;99.90;;;;;;5072057;28;19905;-73
2022/06/28 05:43:35;;;;;;;;;;;15.30;97.60;;;;;;5072715;28;19904;-74
2022/06/28 05:46:01;;;;;;;;;;;15.40;95.30;;;;;;5072486;28;19927;-74
2022/06/28 05:48:26;;;;;;;;;;;15.50;92.90;;;;;;5072868;28;19977;-74
2022/06/28 05:50:53;;;;;;;;;;;15.50;90.40;;;;;;5072489;28;19905;-75
2022/06/28 05:53:18;;;;;;;;;;;15.60;90.20;;;;;;5072982;28;19990;-74
2022/06/28 05:55:44;;;;;;;;;;;15.70;88.50;;;;;;5072579;28;19916;-75
2022/06/28 05:58:09;;;;;;;;;;;15.90;85.10;;;;;;5072188;28;19999;-74
2022/06/28 06:00:37;;;;;;;;;;;16.00;82.80;;;;;;5072467;28;19904;-74
2022/06/28 06:03:03;;;;;;;;;;;16.10;83.00;;;;;;5072057;28;19904;-75
2022/06/28 06:05:28;;;;;;;;;;;16.20;79.60;;;;;;5072402;28;19911;-74
2022/06/28 06:07:54;;;;;;;;;;;16.20;78.20;;;;;;5054187;28;19904;-74
2022/06/28 06:10:19;;;;;;;;;;;16.30;76.40;;;;;;5074729;28;19908;-74
2022/06/28 06:12:45;;;;;;;;;;;16.30;76.10;;;;;;5075833;28;19911;-74
2022/06/28 06:15:10;;;;;;;;;;;16.40;75.80;;;;;;5076452;28;19943;-74
2022/06/28 06:17:36;;;;;;;;;;;16.50;75.20;;;;;;5076066;28;19905;-75
2022/06/28 06:20:02;;;;;;;;;;;16.60;74.30;;;;;;5077500;28;19905;-75
2022/06/28 06:22:28;;;;;;;;;;;16.70;71.60;;;;;;5077986;28;19908;-74
2022/06/28 06:24:54;;;;;;;;;;;16.80;71.60;;;;;;5077431;28;19914;-74
2022/06/28 06:27:19;;;;;;;;;;;16.90;69.20;;;;;;5076076;28;19905;-74
2022/06/28 06:29:45;;;;;;;;;;;16.90;63.30;;;;;;5075792;28;19908;-74
2022/06/28 06:32:10;;;;;;;;;;;17.00;59.50;;;;;;5075282;28;19920;-75
2022/06/28 06:34:36;;;;;;;;;;;17.10;59.20;;;;;;5075609;28;20003;-73
2022/06/28 06:37:01;;;;;;;;;;;17.20;56.90;;;;;;5075014;28;19915;-74
2022/06/28 06:39:27;;;;;;;;;;;17.20;56.40;;;;;;5058124;28;19910;-75
2022/06/28 06:41:52;;;;;;;;;;;17.30;54.30;;;;;;5058804;28;19908;-74
2022/06/28 06:44:18;;;;;;;;;;;17.40;51.80;;;;;;5088062;28;19904;-76
2022/06/28 06:46:44;;;;;;;;;;;17.40;52.10;;;;;;5063806;28;19937;-76
2022/06/28 06:49:09;;;;;;;;;;;17.50;51.00;;;;;;5014344;22;19930;-72
2022/06/28 06:51:35;;;;;;;;;;;17.60;50.10;;;;;;4974360;28;19906;-73
2022/06/28 06:54:01;;;;;;;;;;;17.60;48.40;;;;;;4972729;28;19918;-73
2022/06/28 06:56:27;;;;;;;;;;;17.70;47.40;;;;;;4975872;28;19967;-73
2022/06/28 06:58:53;;;;;;;;;;;17.70;46.80;;;;;;4974631;28;19914;-74
2022/06/28 07:01:18;;;;;;;;;;;17.90;46.90;;;;;;4975977;28;19992;-74
2022/06/28 07:03:45;;;;;;;;;;;18.00;44.00;;;;;;4974092;28;19938;-74
2022/06/28 07:06:14;;;;;;;;;;;18.10;43.10;;;;;;4973164;28;20380;-72
2022/06/28 07:08:39;;;;;;;;;;;18.20;43.10;;;;;;4973123;28;19941;-71
2022/06/28 07:11:05;;;;;;;;;;;18.30;42.40;;;;;;4974408;28;19906;-72
2022/06/28 07:13:31;;;;;;;;;;;18.30;41.80;;;;;;4973882;28;19906;-72
2022/06/28 07:15:57;;;;;;;;;;;18.40;40.30;;;;;;4974242;28;19906;-73
2022/06/28 07:18:23;;;;;;;;;;;18.50;37.80;;;;;;4974470;28;19914;-72
2022/06/28 07:20:52;;;;;;;;;;;18.70;37.40;;;;;;4970892;28;20336;-72
2022/06/28 07:23:18;;;;;;;;;;;18.60;36.90;;;;;;4974669;28;19910;-73
2022/06/28 07:25:43;;;;;;;;;;;18.60;38.00;;;;;;4975875;28;19910;-72
2022/06/28 07:28:10;;;;;;;;;;;18.70;38.60;;;;;;5066499;28;19912;-73
2022/06/28 07:30:36;;;;;;;;;;;18.80;38.90;;;;;;5064984;28;20408;-74
2022/06/28 07:33:02;;;;;;;;;;;18.90;39.30;;;;;;5075958;28;19940;-74
2022/06/28 07:35:27;;;;;;;;;;;18.90;36.00;;;;;;5074005;28;19908;-73
2022/06/28 07:37:53;;;;;;;;;;;18.80;35.20;;;;;;5039216;28;19963;-74
2022/06/28 07:40:18;;;;;;;;;;;18.80;36.50;;;;;;4997537;28;19965;-76
2022/06/28 07:42:44;;;;;;;;;;;18.90;38.50;;;;;;5047771;28;20335;-74
2022/06/28 07:45:09;;;;;;;;;;;19.00;39.40;;;;;;4986039;28;19906;-75
2022/06/28 07:47:35;;;;;;;;;;;19.10;38.70;;;;;;4972191;28;19906;-75
2022/06/28 07:52:45;;;;;;;;;;;19.20;37.30;;;;;;5044422;28;19915;-75
2022/06/28 07:55:10;;;;;;;;;;;19.30;37.30;;;;;;5011040;28;19918;-74
2022/06/28 07:57:36;;;;;;;;;;;19.30;35.40;;;;;;5016968;28;19936;-73
2022/06/28 08:00:03;;;;;;;;;;;19.30;33.30;;;;;;5073678;28;19912;-75
2022/06/28 08:02:29;;;;;;;;;;;19.40;35.20;;;;;;5073245;28;19927;-74
2022/06/28 08:04:55;;;;;;;;;;;19.40;32.40;;;;;;5073392;28;19905;-74
2022/06/28 08:07:20;;;;;;;;;;;19.40;31.90;;;;;;5073249;28;19958;-74
2022/06/28 08:09:46;;;;;;;;;;;19.40;32.50;;;;;;5073602;28;20257;-73
2022/06/28 08:12:11;;;;;;;;;;;19.40;32.20;;;;;;5071955;28;20311;-73
2022/06/28 08:14:37;;;;;;;;;;;19.50;31.30;;;;;;5073567;28;20007;-74
2022/06/28 08:17:03;;;;;;;;;;;19.60;32.30;;;;;;5073405;28;19915;-74
2022/06/28 08:19:29;;;;;;;;;;;19.50;30.90;;;;;;5071950;28;19910;-74
2022/06/28 08:21:54;;;;;;;;;;;19.60;31.00;;;;;;5073393;28;19912;-74
2022/06/28 08:24:20;;;;;;;;;;;19.60;31.50;;;;;;5073091;28;19909;-75
2022/06/28 08:26:46;;;;;;;;;;;19.70;31.10;;;;;;5073205;28;20181;-73
2022/06/28 08:29:13;;;;;;;;;;;19.80;31.00;;;;;;5073076;28;19904;-75
2022/06/28 08:31:42;;;;;;;;;;;20.00;30.00;;;;;;5072275;28;19912;-74
2022/06/28 08:34:07;;;;;;;;;;;20.00;28.10;;;;;;5072917;28;19908;-74
2022/06/28 08:36:33;;;;;;;;;;;20.00;26.20;;;;;;5073191;28;19915;-74
2022/06/28 08:38:59;;;;;;;;;;;20.00;27.20;;;;;;5071815;28;19911;-74
2022/06/28 08:41:26;;;;;;;;;;;20.00;27.40;;;;;;5073229;28;20268;-77
2022/06/28 08:43:53;;;;;;;;;;;20.00;26.90;;;;;;5072497;28;19927;-74
2022/06/28 08:46:18;;;;;;;;;;;20.20;27.60;;;;;;5073312;28;19908;-75
2022/06/28 08:48:49;;;;;;;;;;;20.30;25.50;;;;;;5073241;28;19919;-75
2022/06/28 08:51:15;;;;;;;;;;;20.40;26.20;;;;;;5073220;28;19908;-75
2022/06/28 08:53:41;;;;;;;;;;;20.50;25.50;;;;;;5073315;28;20589;-74
2022/06/28 08:56:09;;;;;;;;;;;20.60;24.20;;;;;;5072955;28;19905;-75
2022/06/28 08:58:36;;;;;;;;;;;20.60;24.70;;;;;;5071518;28;19904;-74
2022/06/28 09:01:01;;;;;;;;;;;20.70;24.80;;;;;;5072703;28;19904;-75
2022/06/28 09:03:27;;;;;;;;;;;20.90;25.30;;;;;;5073448;28;20375;-75
2022/06/28 09:05:52;;;;;;;;;;;21.00;25.30;;;;;;5071696;28;19908;-74
2022/06/28 09:08:18;;;;;;;;;;;21.10;23.90;;;;;;5072479;28;20347;-75
2022/06/28 09:10:43;;;;;;;;;;;21.10;22.10;;;;;;5072509;28;19994;-75
2022/06/28 09:13:10;;;;;;;;;;;21.00;21.20;;;;;;5072862;28;19904;-74
2022/06/28 09:15:47;;;;;;;;;;;21.00;22.30;;;;;;5073283;28;19908;-75
2022/06/28 09:18:12;;;;;;;;;;;21.00;22.00;;;;;;5073442;28;20419;-73
2022/06/28 09:20:38;;;;;;;;;;;21.00;21.20;;;;;;5074883;28;19958;-74
2022/06/28 09:23:04;;;;;;;;;;;21.00;21.90;;;;;;5073771;28;20353;-75
2022/06/28 09:25:30;;;;;;;;;;;21.10;21.60;;;;;;5074203;28;20009;-75
2022/06/28 09:27:57;;;;;;;;;;;21.10;20.00;;;;;;5074164;28;19904;-73
2022/06/28 09:30:24;;;;;;;;;;;21.30;19.90;;;;;;5072554;28;19904;-75
2022/06/28 09:32:49;;;;;;;;;;;21.30;20.40;;;;;;5073466;28;20403;-75
2022/06/28 09:35:15;;;;;;;;;;;21.40;20.40;;;;;;5075459;28;19908;-75
2022/06/28 09:37:48;;;;;;;;;;;21.50;19.30;;;;;;5075784;28;19911;-75
2022/06/28 09:40:22;;;;;;;;;;;21.60;19.70;;;;;;5074960;28;19908;-75
2022/06/28 09:43:07;;;;;;;;;;;21.60;19.10;;;;;;5074935;28;19905;-75
2022/06/28 09:45:32;;;;;;;;;;;21.70;19.50;;;;;;5079727;28;19911;-74
2022/06/28 09:47:58;;;;;;;;;;;21.80;19.50;;;;;;5080036;28;19909;-74
2022/06/28 09:50:23;;;;;;;;;;;21.80;18.50;;;;;;5082815;28;19951;-74
2022/06/28 09:52:50;;;;;;;;;;;21.90;18.50;;;;;;5082868;28;19912;-75
2022/06/28 09:55:16;;;;;;;;;;;22.10;17.80;;;;;;5079404;28;19915;-74
2022/06/28 09:57:44;;;;;;;;;;;22.10;17.00;;;;;;5080572;28;19954;-75
2022/06/28 10:00:09;;;;;;;;;;;22.20;16.70;;;;;;5080890;28;20023;-75
2022/06/28 10:02:35;;;;;;;;;;;22.10;16.20;;;;;;5081671;28;20033;-75
2022/06/28 10:05:01;;;;;;;;;;;22.20;15.80;;;;;;5082220;28;20345;-74
2022/06/28 10:07:34;;;;;;;;;;;22.30;16.30;;;;;;5080863;28;19912;-75
2022/06/28 10:10:00;;;;;;;;;;;22.40;16.10;;;;;;5080405;28;19943;-74
2022/06/28 10:15:10;;;;;;;;;;;22.40;16.00;;;;;;5080284;28;19916;-73
2022/06/28 10:17:54;;;;;;;;;;;22.60;16.30;;;;;;5078374;28;19904;-74
2022/06/28 10:20:24;;;;;;;;;;;22.70;16.30;;;;;;5078794;28;20250;-75
2022/06/28 10:22:49;;;;;;;;;;;23.10;15.30;;;;;;5077287;28;20003;-74
2022/06/28 10:25:19;;;;;;;;;;;23.30;13.70;;;;;;5081252;28;20013;-74
2022/06/28 10:27:54;;;;;;;;;;;23.50;14.60;;;;;;5079460;28;19951;-74
2022/06/28 10:30:21;;;;;;;;;;;23.70;14.80;;;;;;5083037;28;20276;-75
2022/06/28 10:32:51;;;;;;;;;;;23.90;13.40;;;;;;5083543;28;19939;-75
2022/06/28 10:35:29;;;;;;;;;;;23.90;13.70;;;;;;5083112;28;19915;-75
2022/06/28 10:38:09;;;;;;;;;;;23.80;12.70;;;;;;5081813;28;20314;-75
2022/06/28 10:40:38;;;;;;;;;;;23.80;12.60;;;;;;5079855;28;19938;-76
2022/06/28 10:43:04;;;;;;;;;;;23.60;12.50;;;;;;5076558;28;20233;-75
2022/06/28 10:45:49;;;;;;;;;;;23.60;13.80;;;;;;5077547;28;19905;-74
2022/06/28 10:48:15;;;;;;;;;;;23.70;12.90;;;;;;5074950;28;20055;-74
2022/06/28 10:51:02;;;;;;;;;;;23.90;12.40;;;;;;5076700;28;19904;-74
2022/06/28 10:53:31;;;;;;;;;;;24.20;12.30;;;;;;5075632;28;19912;-74
2022/06/28 10:56:12;;;;;;;;;;;24.50;11.00;;;;;;5074855;28;19908;-75
2022/06/28 10:58:54;;;;;;;;;;;24.40;11.70;;;;;;5077498;28;19904;-75
2022/06/28 11:01:46;;;;;;;;;;;24.40;10.00;;;;;;5074904;28;20510;-75
2022/06/28 11:04:18;;;;;;;;;;;24.40;11.00;;;;;;5075732;28;19942;-75
2022/06/28 11:06:47;;;;;;;;;;;24.50;10.00;;;;;;5075936;28;19920;-74
2022/06/28 11:09:19;;;;;;;;;;;24.40;10.50;;;;;;5077339;28;19908;-75
2022/06/28 11:12:03;;;;;;;;;;;24.30;10.50;;;;;;5074034;28;19912;-76
2022/06/28 11:14:32;;;;;;;;;;;24.10;10.70;;;;;;5075630;28;19909;-75
2022/06/28 11:16:59;;;;;;;;;;;23.80;10.70;;;;;;5074714;28;19911;-75
2022/06/28 11:19:25;;;;;;;;;;;23.80;11.20;;;;;;5074764;28;19904;-75
2022/06/28 11:21:57;;;;;;;;;;;24.10;10.60;;;;;;5072914;28;20352;-74
2022/06/28 11:24:23;;;;;;;;;;;24.60;10.70;;;;;;5075233;28;20370;-74
2022/06/28 11:29:33;;;;;;;;;;;24.90;8.50;;;;;;5074832;28;19915;-74
2022/06/28 11:31:59;;;;;;;;;;;25.10;6.90;;;;;;5074144;28;19904;-74
2022/06/28 11:34:25;;;;;;;;;;;25.10;5.90;;;;;;5074228;28;20288;-74
2022/06/28 11:36:53;;;;;;;;;;;25.00;6.40;;;;;;5074497;28;19904;-76
2022/06/28 11:39:21;;;;;;;;;;;24.90;6.50;;;;;;5072878;28;20383;-74
2022/06/28 11:41:50;;;;;;;;;;;24.60;7.20;;;;;;5072664;28;20284;-74
2022/06/28 11:44:16;;;;;;;;;;;24.50;8.00;;;;;;5073893;28;19911;-74
2022/06/28 11:46:42;;;;;;;;;;;24.60;7.80;;;;;;5073868;28;19936;-74
2022/06/28 11:49:08;;;;;;;;;;;24.90;7.30;;;;;;5073473;28;19920;-74
2022/06/28 11:51:34;;;;;;;;;;;25.30;6.80;;;;;;5073036;28;19904;-74
2022/06/28 11:54:04;;;;;;;;;;;25.40;6.80;;;;;;5073595;28;19908;-75
2022/06/28 11:56:46;;;;;;;;;;;25.50;7.50;;;;;;5074033;28;19916;-75
2022/06/28 11:59:12;;;;;;;;;;;25.60;7.60;;;;;;5073616;28;19904;-75
2022/06/28 12:01:38;;;;;;;;;;;25.30;8.60;;;;;;5073866;28;19904;-74
2022/06/28 12:04:06;;;;;;;;;;;25.20;8.60;;;;;;5073502;28;19905;-73
2022/06/28 12:06:33;;;;;;;;;;;25.20;8.60;;;;;;5074975;28;20167;-75
2022/06/28 12:08:58;;;;;;;;;;;25.40;8.20;;;;;;5074233;28;19927;-75
2022/06/28 12:11:31;;;;;;;;;;;25.50;8.20;;;;;;5073452;28;19904;-74
2022/06/28 12:14:03;;;;;;;;;;;25.80;7.20;;;;;;5072367;28;19904;-76
2022/06/28 12:16:51;;;;;;;;;;;25.80;8.00;;;;;;5073624;28;19905;-74
2022/06/28 12:19:18;;;;;;;;;;;25.70;7.50;;;;;;5072794;28;19947;-73
2022/06/28 12:22:02;;;;;;;;;;;25.70;7.10;;;;;;5073950;28;19911;-74
2022/06/28 12:24:44;;;;;;;;;;;26.00;7.90;;;;;;5074253;28;19904;-74
2022/06/28 12:27:12;;;;;;;;;;;26.20;7.90;;;;;;5073725;28;19908;-75
2022/06/28 12:29:37;;;;;;;;;;;26.30;7.50;;;;;;5073906;28;19904;-75
2022/06/28 12:32:03;;;;;;;;;;;26.20;6.20;;;;;;5073668;28;20353;-74
2022/06/28 12:34:29;;;;;;;;;;;26.20;5.70;;;;;;5073607;28;19915;-74
2022/06/28 12:36:55;;;;;;;;;;;26.10;7.50;;;;;;5074826;28;19997;-75
2022/06/28 12:39:21;;;;;;;;;;;26.10;7.20;;;;;;5072140;28;19905;-74
2022/06/28 12:41:48;;;;;;;;;;;26.00;8.60;;;;;;5073598;28;19908;-75
2022/06/28 12:44:14;;;;;;;;;;;25.70;7.10;;;;;;5073423;28;19965;-74
2022/06/28 12:46:40;;;;;;;;;;;25.70;7.40;;;;;;5073850;28;19905;-75
2022/06/28 12:49:05;;;;;;;;;;;25.80;6.30;;;;;;5074914;28;19913;-75
2022/06/28 12:51:31;;;;;;;;;;;26.10;7.10;;;;;;5076416;28;20034;-75
2022/06/28 12:53:56;;;;;;;;;;;26.80;5.50;;;;;;5075036;28;20063;-75
2022/06/28 12:56:22;;;;;;;;;;;27.20;5.00;;;;;;5073165;28;19911;-73
2022/06/28 12:58:48;;;;;;;;;;;27.20;5.50;;;;;;5074228;28;20459;-74
2022/06/28 13:01:13;;;;;;;;;;;27.00;4.80;;;;;;5074215;28;19912;-74
2022/06/28 13:03:40;;;;;;;;;;;26.80;5.10;;;;;;5074607;28;19955;-75
2022/06/28 13:06:06;;;;;;;;;;;26.80;5.20;;;;;;5072334;28;19904;-73
2022/06/28 13:08:31;;;;;;;;;;;26.90;4.50;;;;;;5074494;28;19943;-75
2022/06/28 13:10:57;;;;;;;;;;;27.00;5.80;;;;;;5076388;28;19912;-74
2022/06/28 13:13:22;;;;;;;;;;;26.80;5.00;;;;;;5074516;28;19908;-74
2022/06/28 13:15:48;;;;;;;;;;;26.80;6.30;;;;;;5074107;28;19931;-75
2022/06/28 13:18:14;;;;;;;;;;;27.20;4.90;;;;;;5075087;28;19904;-76
2022/06/28 13:20:39;;;;;;;;;;;27.20;4.40;;;;;;5078222;28;19988;-75
2022/06/28 13:23:05;;;;;;;;;;;27.10;5.70;;;;;;5078899;28;19926;-74
2022/06/28 13:25:30;;;;;;;;;;;27.20;5.10;;;;;;5079233;28;19910;-74
2022/06/28 13:27:56;;;;;;;;;;;28.10;4.10;;;;;;5021523;28;19906;-75
2022/06/28 13:30:22;;;;;;;;;;;29.10;2.60;;;;;;4977221;28;19910;-75
2022/06/28 13:32:48;;;;;;;;;;;30.10;1.30;;;;;;4978307;28;20301;-74
2022/06/28 13:35:13;;;;;;;;;;;30.60;1.00;;;;;;5084681;28;19916;-75
2022/06/28 13:37:39;;;;;;;;;;;30.50;1.00;;;;;;5084236;28;19904;-75
2022/06/28 13:40:04;;;;;;;;;;;30.10;1.00;;;;;;5080958;28;19905;-76
2022/06/28 13:42:30;;;;;;;;;;;29.00;2.30;;;;;;5049526;28;19912;-75
2022/06/28 13:44:56;;;;;;;;;;;28.20;3.00;;;;;;5032588;28;19945;-74
2022/06/28 13:47:21;;;;;;;;;;;27.70;4.10;;;;;;5057686;28;20039;-76
2022/06/28 13:49:47;;;;;;;;;;;28.20;3.70;;;;;;5082194;28;19966;-76
2022/06/28 13:52:13;;;;;;;;;;;29.20;1.70;;;;;;5062945;28;19914;-75
2022/06/28 13:54:38;;;;;;;;;;;30.00;1.50;;;;;;4977260;28;19971;-75
2022/06/28 13:57:04;;;;;;;;;;;30.00;1.00;;;;;;5053864;28;19915;-74
2022/06/28 13:59:30;;;;;;;;;;;29.30;1.70;;;;;;5077429;28;19908;-72
2022/06/28 14:01:55;;;;;;;;;;;28.70;2.50;;;;;;5077406;28;20379;-74
2022/06/28 14:04:21;;;;;;;;;;;28.30;1.70;;;;;;5076321;28;19904;-74
2022/06/28 14:06:46;;;;;;;;;;;28.70;1.00;;;;;;5075226;28;19909;-74
2022/06/28 14:09:12;;;;;;;;;;;28.70;1.00;;;;;;5076147;28;20442;-73
2022/06/28 14:11:37;;;;;;;;;;;28.20;2.70;;;;;;5075025;28;19950;-73
2022/06/28 14:14:03;;;;;;;;;;;27.80;3.00;;;;;;5076055;28;19912;-74
2022/06/28 14:16:28;;;;;;;;;;;27.50;3.00;;;;;;5075371;28;19908;-74
2022/06/28 14:18:54;;;;;;;;;;;28.00;3.60;;;;;;5075316;28;19904;-73
2022/06/28 14:21:20;;;;;;;;;;;29.30;2.10;;;;;;5075028;28;19962;-73
2022/06/28 14:23:45;;;;;;;;;;;30.80;1.00;;;;;;5029401;28;19916;-76
2022/06/28 14:26:11;;;;;;;;;;;31.70;1.00;;;;;;5074820;28;20161;-74
2022/06/28 14:28:36;;;;;;;;;;;32.40;1.00;;;;;;4965426;28;19906;-73
2022/06/28 14:31:02;;;;;;;;;;;32.70;1.00;;;;;;4951339;28;19910;-72